Terminal Aerodrome Forecast
Issued by NWS Portland, OR

Home | Current Version | Previous Version | Text Only | Print | Product List | Glossary On
Versions: 1 2 3 4 5 6 7 8 9 10 11 12 13 14 15
000
FTUS46 KPQR 190529
TAFEUG
TAF
KEUG 190529Z 1906/2006 16004KT P6SM VCSH SCT025 OVC045
     FM191200 18008KT P6SM SCT025 BKN040 OVC070
     FM191400 18008KT 2SM -SHRA SCT025 BKN040 OVC070
     FM191800 19011KT P6SM VCSH OVC050
     FM200000 22010KT P6SM -SHRA OVC050
     FM200400 19008KT 4SM -RA BR OVC025=

USA.gov is the U.S. government's official web portal to all federal, state and local government web resources and services.